sensor_id;sensor_type;location;lat;lon;timestamp;pressure;altitude;pressure_sealevel;temperature;humidity
71903;BME280;59778;50.310;18.780;2023-02-03T00:03:17;99476.22;;;0.70;82.50
71903;BME280;59778;50.310;18.780;2023-02-03T00:18:38;99480.69;;;0.59;82.24
71903;BME280;59778;50.310;18.780;2023-02-03T00:33:59;99503.97;;;0.57;81.55
71903;BME280;59778;50.310;18.780;2023-02-03T00:49:21;99505.06;;;0.54;81.62
71903;BME280;59778;50.310;18.780;2023-02-03T01:04:43;99506.72;;;0.44;81.54
71903;BME280;59778;50.310;18.780;2023-02-03T01:20:04;99491.81;;;0.29;82.57
71903;BME280;59778;50.310;18.780;2023-02-03T01:35:26;99494.53;;;0.16;83.97
71903;BME280;59778;50.310;18.780;2023-02-03T01:50:47;99481.56;;;-0.01;83.88
71903;BME280;59778;50.310;18.780;2023-02-03T02:06:10;99477.78;;;-0.35;85.21
71903;BME280;59778;50.310;18.780;2023-02-03T02:37:23;99438.25;;;-0.66;87.66
71903;BME280;59778;50.310;18.780;2023-02-03T02:52:47;99415.94;;;-0.40;87.64
71903;BME280;59778;50.310;18.780;2023-02-03T03:08:11;99424.06;;;-0.54;85.20
71903;BME280;59778;50.310;18.780;2023-02-03T03:23:38;99434.78;;;-0.43;84.60
71903;BME280;59778;50.310;18.780;2023-02-03T03:39:08;99401.69;;;-0.28;84.94
71903;BME280;59778;50.310;18.780;2023-02-03T03:54:33;99377.16;;;-0.33;86.13
71903;BME280;59778;50.310;18.780;2023-02-03T04:09:57;99372.22;;;-0.63;88.14
71903;BME280;59778;50.310;18.780;2023-02-03T04:25:19;99346.97;;;-0.82;89.21
71903;BME280;59778;50.310;18.780;2023-02-03T04:40:41;99329.50;;;-0.86;89.98
71903;BME280;59778;50.310;18.780;2023-02-03T04:56:05;99301.00;;;-0.73;89.42
71903;BME280;59778;50.310;18.780;2023-02-03T05:11:27;99262.84;;;-0.86;89.70
71903;BME280;59778;50.310;18.780;2023-02-03T05:26:48;99247.66;;;-0.73;90.72
71903;BME280;59778;50.310;18.780;2023-02-03T05:42:09;99226.81;;;-0.79;90.88
71903;BME280;59778;50.310;18.780;2023-02-03T05:57:31;99196.56;;;-0.67;89.27
71903;BME280;59778;50.310;18.780;2023-02-03T06:12:53;99178.38;;;-0.62;88.25
71903;BME280;59778;50.310;18.780;2023-02-03T06:28:14;99172.47;;;-0.55;86.45
71903;BME280;59778;50.310;18.780;2023-02-03T06:43:36;99148.94;;;-0.61;84.58
71903;BME280;59778;50.310;18.780;2023-02-03T06:58:57;99134.44;;;-0.45;82.80
71903;BME280;59778;50.310;18.780;2023-02-03T07:14:19;99097.72;;;-0.42;81.40
71903;BME280;59778;50.310;18.780;2023-02-03T07:29:40;99077.97;;;-0.28;79.89
71903;BME280;59778;50.310;18.780;2023-02-03T07:45:01;99074.34;;;-0.16;80.28
71903;BME280;59778;50.310;18.780;2023-02-03T08:00:23;99025.53;;;0.04;80.27
71903;BME280;59778;50.310;18.780;2023-02-03T08:15:46;99021.38;;;0.33;79.90
71903;BME280;59778;50.310;18.780;2023-02-03T08:31:11;98985.75;;;0.44;82.35
71903;BME280;59778;50.310;18.780;2023-02-03T08:46:32;98967.44;;;-0.04;94.92
71903;BME280;59778;50.310;18.780;2023-02-03T09:01:55;98933.41;;;-0.33;100.00
71903;BME280;59778;50.310;18.780;2023-02-03T09:17:16;98892.03;;;-0.17;100.00
71903;BME280;59778;50.310;18.780;2023-02-03T09:32:38;98844.16;;;0.03;100.00
71903;BME280;59778;50.310;18.780;2023-02-03T09:48:25;98791.63;;;0.03;100.00
71903;BME280;59778;50.310;18.780;2023-02-03T10:19:19;98698.41;;;0.21;100.00
71903;BME280;59778;50.310;18.780;2023-02-03T10:34:46;98650.81;;;0.26;100.00
71903;BME280;59778;50.310;18.780;2023-02-03T10:50:16;98597.00;;;0.30;100.00
71903;BME280;59778;50.310;18.780;2023-02-03T11:05:39;98557.41;;;0.35;100.00
71903;BME280;59778;50.310;18.780;2023-02-03T11:37:22;98437.91;;;0.57;100.00
71903;BME280;59778;50.310;18.780;2023-02-03T11:53:02;98379.25;;;0.65;100.00
71903;BME280;59778;50.310;18.780;2023-02-03T12:09:16;98329.34;;;0.75;100.00
71903;BME280;59778;50.310;18.780;2023-02-03T12:39:57;98239.81;;;0.88;100.00
71903;BME280;59778;50.310;18.780;2023-02-03T12:55:40;98201.66;;;0.96;100.00
71903;BME280;59778;50.310;18.780;2023-02-03T13:12:05;98167.84;;;0.77;100.00
71903;BME280;59778;50.310;18.780;2023-02-03T13:27:15;98119.69;;;0.60;100.00
71903;BME280;59778;50.310;18.780;2023-02-03T13:42:50;98084.16;;;0.77;100.00
71903;BME280;59778;50.310;18.780;2023-02-03T13:58:21;98047.22;;;0.72;100.00
71903;BME280;59778;50.310;18.780;2023-02-03T14:13:44;98010.59;;;0.82;100.00
71903;BME280;59778;50.310;18.780;2023-02-03T14:29:06;97972.59;;;0.97;100.00
71903;BME280;59778;50.310;18.780;2023-02-03T15:15:28;97981.25;;;1.34;100.00
71903;BME280;59778;50.310;18.780;2023-02-03T15:46:34;97986.09;;;1.98;100.00
71903;BME280;59778;50.310;18.780;2023-02-03T16:02:00;98001.41;;;2.64;100.00
71903;BME280;59778;50.310;18.780;2023-02-03T16:17:27;98013.84;;;2.97;100.00
71903;BME280;59778;50.310;18.780;2023-02-03T16:32:59;97993.41;;;3.04;100.00
71903;BME280;59778;50.310;18.780;2023-02-03T16:48:39;98016.53;;;3.05;100.00
71903;BME280;59778;50.310;18.780;2023-02-03T17:04:19;98038.84;;;3.14;100.00
71903;BME280;59778;50.310;18.780;2023-02-03T17:19:40;98048.91;;;3.12;100.00
71903;BME280;59778;50.310;18.780;2023-02-03T17:35:02;98070.38;;;3.28;100.00
71903;BME280;59778;50.310;18.780;2023-02-03T17:50:23;98081.63;;;3.23;100.00
71903;BME280;59778;50.310;18.780;2023-02-03T18:05:51;98108.91;;;3.03;100.00
71903;BME280;59778;50.310;18.780;2023-02-03T18:21:14;98107.72;;;2.97;100.00
71903;BME280;59778;50.310;18.780;2023-02-03T18:36:35;98128.16;;;2.90;100.00
71903;BME280;59778;50.310;18.780;2023-02-03T18:51:56;98141.19;;;2.85;100.00
71903;BME280;59778;50.310;18.780;2023-02-03T19:07:18;98162.28;;;2.72;100.00
71903;BME280;59778;50.310;18.780;2023-02-03T19:22:39;98152.75;;;2.44;100.00
71903;BME280;59778;50.310;18.780;2023-02-03T19:38:00;98153.06;;;2.41;100.00
71903;BME280;59778;50.310;18.780;2023-02-03T19:53:21;98165.81;;;2.47;100.00
71903;BME280;59778;50.310;18.780;2023-02-03T20:08:44;98166.75;;;2.63;100.00
71903;BME280;59778;50.310;18.780;2023-02-03T20:24:05;98152.22;;;2.74;100.00
71903;BME280;59778;50.310;18.780;2023-02-03T20:39:27;98143.03;;;2.76;100.00
71903;BME280;59778;50.310;18.780;2023-02-03T20:54:48;98144.09;;;2.92;100.00
71903;BME280;59778;50.310;18.780;2023-02-03T21:10:17;98145.44;;;2.96;100.00
71903;BME280;59778;50.310;18.780;2023-02-03T21:25:40;98142.97;;;3.10;100.00
71903;BME280;59778;50.310;18.780;2023-02-03T21:41:11;98131.88;;;3.13;100.00
71903;BME280;59778;50.310;18.780;2023-02-03T21:56:37;98135.94;;;3.25;100.00
71903;BME280;59778;50.310;18.780;2023-02-03T22:12:00;98130.09;;;3.38;100.00
71903;BME280;59778;50.310;18.780;2023-02-03T22:27:21;98128.25;;;3.30;100.00
71903;BME280;59778;50.310;18.780;2023-02-03T22:42:45;98136.97;;;3.41;100.00
71903;BME280;59778;50.310;18.780;2023-02-03T22:58:06;98127.91;;;3.42;100.00
71903;BME280;59778;50.310;18.780;2023-02-03T23:13:28;98118.88;;;3.43;100.00
71903;BME280;59778;50.310;18.780;2023-02-03T23:28:49;98112.16;;;3.30;100.00
71903;BME280;59778;50.310;18.780;2023-02-03T23:44:10;98100.72;;;3.20;100.00
71903;BME280;59778;50.310;18.780;2023-02-03T23:59:32;98099.22;;;3.26;100.00
